createdAt,value
2022-10-22T00:00:18.093Z,14.68
2022-10-22T00:02:45.961Z,14.56
2022-10-22T00:05:13.805Z,14.59
2022-10-22T00:07:42.928Z,14.62
2022-10-22T00:10:11.174Z,14.66
2022-10-22T00:12:40.151Z,14.73
2022-10-22T00:15:08.660Z,14.69
2022-10-22T00:17:36.174Z,14.66
2022-10-22T00:20:03.726Z,14.74
2022-10-22T00:22:31.196Z,14.65
2022-10-22T00:25:00.022Z,14.66
2022-10-22T00:27:27.521Z,14.66
2022-10-22T00:29:54.993Z,14.68
2022-10-22T00:32:22.496Z,14.75
2022-10-22T00:34:49.958Z,14.80
2022-10-22T00:37:17.473Z,14.73
2022-10-22T00:39:44.908Z,14.75
2022-10-22T00:42:19.203Z,14.80
2022-10-22T00:45:03.123Z,14.78
2022-10-22T00:47:33.170Z,14.78
2022-10-22T00:50:01.228Z,14.81
2022-10-22T00:52:29.469Z,14.84
2022-10-22T00:54:58.309Z,14.88
2022-10-22T00:57:27.561Z,14.82
2022-10-22T00:59:55.466Z,14.80
2022-10-22T01:02:22.956Z,14.77
2022-10-22T01:04:50.485Z,14.77
2022-10-22T01:07:19.960Z,14.67
2022-10-22T01:09:53.780Z,14.63
2022-10-22T01:12:28.557Z,14.65
2022-10-22T01:15:06.233Z,14.65
2022-10-22T01:17:36.777Z,14.53
2022-10-22T01:20:15.059Z,14.53
2022-10-22T01:22:45.207Z,14.50
2022-10-22T01:25:18.461Z,14.45
2022-10-22T01:27:54.971Z,14.53
2022-10-22T01:30:24.413Z,14.57
2022-10-22T01:32:53.543Z,14.58
2022-10-22T01:35:23.886Z,14.65
2022-10-22T01:37:54.418Z,14.69
2022-10-22T01:40:23.053Z,14.57
2022-10-22T01:42:58.489Z,14.49
2022-10-22T01:45:27.757Z,14.38
2022-10-22T01:48:01.162Z,14.48
2022-10-22T01:50:39.202Z,14.46
2022-10-22T01:53:26.933Z,14.51
2022-10-22T01:56:13.987Z,14.38
2022-10-22T01:58:45.853Z,14.37
2022-10-22T02:01:19.624Z,14.33
2022-10-22T02:03:50.041Z,14.34
2022-10-22T02:06:20.196Z,14.31
2022-10-22T02:08:48.498Z,14.32
2022-10-22T02:11:16.664Z,14.34
2022-10-22T02:13:46.252Z,14.38
2022-10-22T02:16:19.625Z,14.44
2022-10-22T02:18:48.698Z,14.38
2022-10-22T02:21:16.972Z,14.38
2022-10-22T02:23:44.800Z,14.29
2022-10-22T02:26:17.025Z,14.30
2022-10-22T02:28:51.347Z,14.35
2022-10-22T02:31:22.355Z,14.36
2022-10-22T02:33:52.963Z,14.36
2022-10-22T02:36:21.052Z,14.34
2022-10-22T02:38:49.378Z,14.39
2022-10-22T02:41:17.148Z,14.42
2022-10-22T02:43:45.937Z,14.32
2022-10-22T02:46:13.475Z,14.35
2022-10-22T02:48:42.306Z,14.27
2022-10-22T02:51:09.803Z,14.24
2022-10-22T02:53:37.445Z,14.23
2022-10-22T02:56:06.031Z,14.21
2022-10-22T02:58:33.547Z,14.18
2022-10-22T03:01:01.096Z,14.19
2022-10-22T03:03:28.635Z,14.14
2022-10-22T03:05:57.429Z,14.14
2022-10-22T03:08:25.000Z,14.08
2022-10-22T03:10:52.700Z,14.12
2022-10-22T03:13:20.159Z,14.12
2022-10-22T03:15:49.580Z,14.16
2022-10-22T03:18:17.531Z,14.23
2022-10-22T03:20:45.337Z,14.25
2022-10-22T03:23:15.618Z,14.26
2022-10-22T03:25:44.342Z,14.27
2022-10-22T03:28:15.093Z,14.20
2022-10-22T03:30:42.540Z,14.28
2022-10-22T03:33:10.013Z,14.30
2022-10-22T03:35:42.930Z,14.25
2022-10-22T03:38:10.466Z,14.23
2022-10-22T03:40:39.407Z,14.27
2022-10-22T03:43:06.973Z,14.20
2022-10-22T03:45:34.474Z,14.29
2022-10-22T03:48:01.968Z,14.29
2022-10-22T03:50:29.708Z,14.29
2022-10-22T03:52:58.119Z,14.26
2022-10-22T03:55:25.649Z,14.27
2022-10-22T03:57:54.449Z,14.25
2022-10-22T04:00:22.188Z,14.30
2022-10-22T04:02:49.653Z,14.28
2022-10-22T04:05:17.208Z,14.31
2022-10-22T04:07:44.683Z,14.26
2022-10-22T04:10:12.141Z,14.28
2022-10-22T04:12:39.613Z,14.23
2022-10-22T04:15:10.110Z,14.29
2022-10-22T04:17:38.421Z,14.18
2022-10-22T04:20:07.101Z,14.20
2022-10-22T04:22:35.076Z,14.13
2022-10-22T04:25:02.729Z,14.11
2022-10-22T04:27:31.296Z,14.09
2022-10-22T04:29:58.735Z,14.09
2022-10-22T04:32:27.666Z,14.10
2022-10-22T04:34:55.177Z,14.12
2022-10-22T04:37:22.782Z,14.19
2022-10-22T04:39:50.236Z,14.18
2022-10-22T04:42:17.770Z,14.24
2022-10-22T04:44:45.262Z,14.18
2022-10-22T04:47:12.796Z,14.15
2022-10-22T04:49:41.617Z,14.14
2022-10-22T04:52:09.076Z,14.03
2022-10-22T04:54:36.531Z,14.08
2022-10-22T04:57:04.031Z,14.09
2022-10-22T04:59:31.557Z,14.04
2022-10-22T05:01:59.007Z,14.02
2022-10-22T05:04:26.544Z,14.11
2022-10-22T05:06:55.439Z,14.02
2022-10-22T05:09:22.916Z,13.99
2022-10-22T05:11:52.362Z,14.04
2022-10-22T05:14:21.661Z,14.00
2022-10-22T05:16:49.553Z,14.02
2022-10-22T05:19:19.129Z,14.08
2022-10-22T05:21:46.575Z,14.05
2022-10-22T05:24:15.425Z,14.11
2022-10-22T05:26:42.923Z,14.11
2022-10-22T05:29:10.392Z,14.09
2022-10-22T05:31:38.803Z,14.06
2022-10-22T05:34:06.249Z,14.05
2022-10-22T05:36:33.737Z,14.06
2022-10-22T05:39:01.219Z,13.97
2022-10-22T05:41:31.444Z,13.98
2022-10-22T05:44:00.391Z,13.99
2022-10-22T05:46:29.741Z,14.02
2022-10-22T05:48:59.008Z,14.04
2022-10-22T05:51:27.610Z,14.00
2022-10-22T05:53:56.395Z,13.99
2022-10-22T05:56:24.419Z,14.03
2022-10-22T05:58:53.336Z,14.02
2022-10-22T06:01:22.698Z,13.97
2022-10-22T06:03:50.570Z,13.93
2022-10-22T06:06:21.191Z,13.96
2022-10-22T06:08:50.137Z,13.92
2022-10-22T06:11:18.350Z,13.92
2022-10-22T06:13:45.915Z,13.91
2022-10-22T06:16:15.250Z,13.93
2022-10-22T06:18:42.862Z,13.83
2022-10-22T06:21:11.784Z,13.77
2022-10-22T06:23:39.884Z,13.73
2022-10-22T06:26:08.140Z,13.62
2022-10-22T06:28:36.367Z,13.62
2022-10-22T06:31:04.906Z,13.71
2022-10-22T06:33:37.089Z,13.62
2022-10-22T06:36:08.386Z,13.47
2022-10-22T06:38:35.987Z,13.46
2022-10-22T06:41:04.879Z,13.49
2022-10-22T06:43:32.470Z,13.51
2022-10-22T06:46:01.364Z,13.51
2022-10-22T06:48:29.135Z,13.46
2022-10-22T06:50:58.084Z,13.52
2022-10-22T06:53:25.586Z,13.46
2022-10-22T06:55:53.142Z,13.44
2022-10-22T06:58:20.598Z,13.48
2022-10-22T07:00:48.120Z,13.34
2022-10-22T07:03:16.470Z,13.51
2022-10-22T07:05:44.024Z,13.45
2022-10-22T07:08:12.828Z,13.42
2022-10-22T07:10:40.402Z,13.41
2022-10-22T07:13:07.893Z,13.48
2022-10-22T07:15:35.469Z,13.34
2022-10-22T07:18:04.620Z,13.32
2022-10-22T07:20:32.112Z,13.41
2022-10-22T07:22:59.571Z,13.45
2022-10-22T07:25:28.442Z,13.50
2022-10-22T07:27:56.024Z,13.46
2022-10-22T07:30:23.534Z,13.48
2022-10-22T07:32:51.018Z,13.57
2022-10-22T07:35:18.516Z,13.51
2022-10-22T07:37:46.009Z,13.57
2022-10-22T07:40:15.440Z,13.70
2022-10-22T07:42:47.085Z,13.73
2022-10-22T07:45:15.215Z,13.84
2022-10-22T07:47:43.659Z,13.92
2022-10-22T07:50:11.738Z,13.98
2022-10-22T07:52:39.667Z,14.04
2022-10-22T07:55:08.128Z,14.15
2022-10-22T07:57:36.925Z,14.14
2022-10-22T08:00:06.632Z,14.13
2022-10-22T08:02:34.261Z,14.15
2022-10-22T08:05:01.737Z,14.18
2022-10-22T08:07:29.453Z,14.16
2022-10-22T08:09:57.171Z,14.19
2022-10-22T08:12:24.759Z,14.16
2022-10-22T08:14:52.272Z,14.18
2022-10-22T08:17:21.134Z,14.24
2022-10-22T08:19:48.621Z,14.21
2022-10-22T08:22:16.104Z,14.29
2022-10-22T08:24:43.618Z,14.29
2022-10-22T08:27:11.092Z,14.36
2022-10-22T08:29:38.589Z,14.36
2022-10-22T08:32:06.485Z,14.44
2022-10-22T08:34:35.333Z,14.44
2022-10-22T08:37:02.871Z,14.41
2022-10-22T08:39:30.505Z,14.52
2022-10-22T08:42:06.080Z,14.52
2022-10-22T08:44:46.586Z,14.58
2022-10-22T08:47:23.286Z,14.62
2022-10-22T08:49:54.647Z,14.71
2022-10-22T08:52:23.003Z,14.76
2022-10-22T08:54:54.157Z,14.82
2022-10-22T08:57:33.648Z,14.78
2022-10-22T09:00:05.705Z,14.88
2022-10-22T09:02:39.327Z,14.87
2022-10-22T09:05:21.936Z,14.92
2022-10-22T09:07:50.349Z,14.99
2022-10-22T09:10:19.083Z,15.03
2022-10-22T09:12:46.877Z,15.10
2022-10-22T09:15:15.266Z,15.11
2022-10-22T09:17:52.246Z,15.10
2022-10-22T09:20:28.486Z,15.12
2022-10-22T09:23:02.845Z,15.24
2022-10-22T09:25:32.747Z,15.24
2022-10-22T09:28:00.261Z,15.34
2022-10-22T09:30:29.735Z,15.40
2022-10-22T09:33:01.813Z,15.35
2022-10-22T09:35:34.598Z,15.39
2022-10-22T09:38:08.972Z,15.39
2022-10-22T09:40:44.278Z,15.45
2022-10-22T09:43:14.201Z,15.46
2022-10-22T09:45:42.300Z,15.50
2022-10-22T09:48:20.517Z,15.67
2022-10-22T09:50:56.231Z,15.66
2022-10-22T09:53:28.294Z,15.63
2022-10-22T09:55:58.667Z,15.69
2022-10-22T09:58:26.578Z,15.71
2022-10-22T10:00:56.783Z,15.72
2022-10-22T10:03:26.335Z,15.83
2022-10-22T10:06:00.171Z,15.84
2022-10-22T10:08:30.819Z,15.91
2022-10-22T10:11:02.105Z,15.92
2022-10-22T10:13:45.798Z,16.07
2022-10-22T10:16:22.891Z,16.13
2022-10-22T10:19:04.187Z,16.14
2022-10-22T10:21:39.355Z,16.24
2022-10-22T10:24:15.013Z,16.29
2022-10-22T10:26:47.569Z,16.32
2022-10-22T10:29:25.137Z,16.34
2022-10-22T10:32:04.368Z,16.40
2022-10-22T10:34:40.868Z,16.53
2022-10-22T10:37:18.638Z,16.63
2022-10-22T10:40:06.477Z,16.85
2022-10-22T10:42:37.795Z,16.99
2022-10-22T10:45:17.429Z,17.12
2022-10-22T10:48:30.357Z,17.18
2022-10-22T10:51:05.423Z,17.06
2022-10-22T10:53:45.678Z,17.06
2022-10-22T10:56:26.201Z,16.90
2022-10-22T10:59:02.502Z,16.88
2022-10-22T11:01:37.115Z,16.97
2022-10-22T11:04:21.461Z,17.07
2022-10-22T11:06:50.228Z,17.11
2022-10-22T11:09:24.663Z,17.09
2022-10-22T11:11:54.995Z,17.05
2022-10-22T11:14:27.889Z,17.14
2022-10-22T11:17:01.599Z,17.30
2022-10-22T11:19:50.176Z,17.50
2022-10-22T11:22:26.584Z,17.70
2022-10-22T11:24:58.353Z,17.77
2022-10-22T11:27:29.818Z,17.84
2022-10-22T11:30:01.907Z,18.00
2022-10-22T11:32:29.525Z,18.07
2022-10-22T11:34:59.617Z,17.95
2022-10-22T11:37:34.392Z,17.99
2022-10-22T11:40:06.591Z,18.08
2022-10-22T11:42:36.587Z,18.17
2022-10-22T11:45:06.628Z,18.31
2022-10-22T11:47:35.874Z,18.27
2022-10-22T11:50:19.115Z,18.13
2022-10-22T11:52:55.124Z,18.10
2022-10-22T11:55:34.220Z,18.09
2022-10-22T11:58:03.819Z,18.04
2022-10-22T12:00:41.242Z,17.92
2022-10-22T12:03:18.204Z,18.01
2022-10-22T12:05:46.305Z,18.03
2022-10-22T12:08:19.285Z,18.02
2022-10-22T12:10:59.302Z,18.09
2022-10-22T12:13:28.851Z,18.25
2022-10-22T12:15:59.589Z,18.18
2022-10-22T12:18:29.403Z,18.25
2022-10-22T12:20:56.891Z,18.23
2022-10-22T12:23:33.293Z,18.31
2022-10-22T12:26:02.361Z,18.35
2022-10-22T12:28:29.819Z,18.39
2022-10-22T12:31:00.448Z,18.46
2022-10-22T12:33:28.205Z,18.44
2022-10-22T12:35:57.523Z,18.44
2022-10-22T12:38:26.456Z,18.38
2022-10-22T12:40:56.310Z,18.35
2022-10-22T12:43:27.883Z,18.42
2022-10-22T12:45:55.703Z,18.54
2022-10-22T12:48:25.304Z,18.42
2022-10-22T12:50:54.603Z,18.42
2022-10-22T12:53:26.352Z,18.57
2022-10-22T12:55:55.322Z,18.66
2022-10-22T12:58:28.360Z,18.78
2022-10-22T13:01:02.066Z,18.73
2022-10-22T13:03:32.793Z,18.65
2022-10-22T13:06:13.230Z,18.60
2022-10-22T13:08:41.268Z,18.44
2022-10-22T13:11:10.199Z,18.34
2022-10-22T13:13:48.357Z,18.38
2022-10-22T13:16:18.710Z,18.34
2022-10-22T13:18:47.465Z,18.34
2022-10-22T13:21:26.307Z,18.24
2022-10-22T13:23:57.406Z,18.17
2022-10-22T13:26:26.224Z,18.19
2022-10-22T13:28:56.856Z,18.25
2022-10-22T13:31:26.781Z,18.16
2022-10-22T13:33:57.471Z,18.32
2022-10-22T13:36:25.695Z,18.33
2022-10-22T13:38:53.314Z,18.34
2022-10-22T13:41:23.014Z,18.29
2022-10-22T13:43:50.849Z,18.37
2022-10-22T13:46:19.848Z,18.44
2022-10-22T13:48:48.356Z,18.43
2022-10-22T13:51:17.823Z,18.42
2022-10-22T13:53:46.561Z,18.36
2022-10-22T13:56:16.437Z,18.31
2022-10-22T13:58:44.721Z,18.21
2022-10-22T14:01:21.677Z,18.18
2022-10-22T14:03:50.406Z,18.13
2022-10-22T14:06:19.708Z,18.13
2022-10-22T14:08:50.448Z,18.14
2022-10-22T14:11:18.500Z,18.15
2022-10-22T14:13:45.969Z,18.09
2022-10-22T14:16:17.874Z,18.12
2022-10-22T14:18:47.314Z,18.00
2022-10-22T14:21:15.877Z,18.00
2022-10-22T14:23:44.993Z,17.93
2022-10-22T14:26:20.896Z,17.95
2022-10-22T14:29:08.720Z,17.97
2022-10-22T14:31:36.314Z,17.85
2022-10-22T14:34:05.211Z,17.61
2022-10-22T14:36:32.717Z,17.65
2022-10-22T14:39:00.263Z,17.45
2022-10-22T14:41:29.775Z,17.53
2022-10-22T14:43:59.434Z,17.59
2022-10-22T14:46:26.898Z,17.72
2022-10-22T14:48:54.423Z,17.64
2022-10-22T14:51:23.496Z,17.67
2022-10-22T14:53:51.301Z,17.63
2022-10-22T14:56:21.148Z,17.58
2022-10-22T14:58:49.058Z,17.46
2022-10-22T15:01:16.626Z,17.46
2022-10-22T15:03:44.090Z,17.45
2022-10-22T15:06:11.592Z,17.50
2022-10-22T15:08:40.504Z,17.48
2022-10-22T15:11:10.649Z,17.44
2022-10-22T15:13:39.158Z,17.35
2022-10-22T15:16:07.481Z,17.30
2022-10-22T15:18:35.020Z,17.32
2022-10-22T15:21:05.183Z,17.25
2022-10-22T15:23:33.073Z,17.19
2022-10-22T15:26:02.012Z,17.08
2022-10-22T15:28:30.401Z,17.02
2022-10-22T15:30:59.815Z,17.06
2022-10-22T15:33:28.939Z,16.97
2022-10-22T15:35:57.171Z,16.95
2022-10-22T15:41:05.419Z,16.90
2022-10-22T15:43:33.800Z,16.92
2022-10-22T15:46:10.973Z,16.82
2022-10-22T15:48:38.740Z,16.81
2022-10-22T15:51:10.886Z,16.78
2022-10-22T15:53:38.756Z,16.73
2022-10-22T15:56:08.483Z,16.70
2022-10-22T15:58:36.071Z,16.57
2022-10-22T16:01:07.604Z,16.53
2022-10-22T16:03:35.337Z,16.38
2022-10-22T16:06:03.055Z,16.34
2022-10-22T16:08:30.627Z,16.30
2022-10-22T16:10:58.491Z,16.18
2022-10-22T16:13:27.429Z,16.11
2022-10-22T16:15:55.918Z,16.00
2022-10-22T16:18:24.024Z,16.02
2022-10-22T16:20:51.540Z,15.94
2022-10-22T16:23:20.750Z,15.87
2022-10-22T16:25:48.241Z,15.85
2022-10-22T16:28:15.714Z,15.75
2022-10-22T16:30:44.564Z,15.75
2022-10-22T16:33:12.627Z,15.67
2022-10-22T16:35:43.685Z,15.60
2022-10-22T16:38:12.173Z,15.56
2022-10-22T16:40:39.808Z,15.52
2022-10-22T16:43:07.335Z,15.43
2022-10-22T16:45:34.827Z,15.24
2022-10-22T16:48:03.822Z,15.17
2022-10-22T16:50:31.372Z,15.12
2022-10-22T16:52:58.876Z,15.07
2022-10-22T16:55:26.377Z,15.04
2022-10-22T16:57:54.320Z,15.00
2022-10-22T17:00:22.107Z,14.99
2022-10-22T17:02:53.871Z,14.87
2022-10-22T17:05:23.391Z,14.66
2022-10-22T17:07:51.246Z,14.61
2022-10-22T17:10:19.613Z,14.60
2022-10-22T17:12:47.542Z,14.44
2022-10-22T17:15:15.659Z,14.46
2022-10-22T17:17:43.431Z,14.60
2022-10-22T17:20:12.196Z,14.52
2022-10-22T17:22:41.302Z,14.45
2022-10-22T17:25:12.585Z,14.49
2022-10-22T17:27:40.554Z,14.35
2022-10-22T17:30:09.768Z,14.26
2022-10-22T17:32:38.908Z,14.18
2022-10-22T17:35:07.708Z,14.08
2022-10-22T17:37:35.911Z,14.17
2022-10-22T17:40:06.067Z,14.17
2022-10-22T17:42:33.551Z,14.07
2022-10-22T17:45:01.034Z,14.14
2022-10-22T17:47:28.579Z,14.12
2022-10-22T17:49:56.148Z,14.05
2022-10-22T17:52:23.783Z,14.01
2022-10-22T17:54:51.516Z,13.94
2022-10-22T17:57:20.361Z,13.83
2022-10-22T17:59:47.823Z,13.81
2022-10-22T18:02:17.240Z,13.77
2022-10-22T18:04:45.239Z,13.78
2022-10-22T18:07:13.501Z,13.63
2022-10-22T18:09:42.715Z,13.74
2022-10-22T18:12:11.726Z,13.77
2022-10-22T18:14:41.125Z,13.65
2022-10-22T18:17:09.234Z,13.59
2022-10-22T18:19:36.843Z,13.62
2022-10-22T18:22:05.660Z,13.58
2022-10-22T18:24:33.164Z,13.60
2022-10-22T18:27:00.704Z,13.56
2022-10-22T18:29:28.278Z,13.38
2022-10-22T18:31:57.141Z,13.22
2022-10-22T18:34:24.608Z,13.28
2022-10-22T18:36:52.143Z,13.23
2022-10-22T18:39:19.959Z,13.32
2022-10-22T18:41:47.437Z,13.20
2022-10-22T18:44:18.104Z,13.18
2022-10-22T18:46:45.597Z,13.28
2022-10-22T18:49:18.968Z,13.32
2022-10-22T18:51:48.532Z,13.28
2022-10-22T18:54:23.000Z,13.08
2022-10-22T18:56:51.027Z,13.03
2022-10-22T18:59:20.244Z,12.99
2022-10-22T19:01:47.829Z,12.88
2022-10-22T19:04:16.675Z,12.88
2022-10-22T19:06:45.737Z,13.03
2022-10-22T19:09:17.414Z,13.22
2022-10-22T19:11:45.299Z,13.12
2022-10-22T19:14:13.885Z,13.00
2022-10-22T19:16:41.330Z,12.76
2022-10-22T19:19:09.064Z,12.67
2022-10-22T19:21:38.397Z,12.74
2022-10-22T19:24:06.591Z,12.73
2022-10-22T19:26:34.076Z,12.76
2022-10-22T19:29:01.723Z,12.73
2022-10-22T19:31:31.073Z,12.75
2022-10-22T19:33:59.316Z,12.78
2022-10-22T19:36:28.716Z,12.64
2022-10-22T19:38:58.397Z,12.52
2022-10-22T19:41:28.340Z,12.54
2022-10-22T19:43:56.779Z,12.48
2022-10-22T19:46:26.531Z,12.47
2022-10-22T19:48:56.342Z,12.57
2022-10-22T19:51:26.166Z,12.77
2022-10-22T19:53:59.405Z,12.84
2022-10-22T19:56:27.087Z,12.87
2022-10-22T19:58:54.590Z,12.68
2022-10-22T20:01:22.306Z,12.53
2022-10-22T20:03:50.018Z,12.39
2022-10-22T20:06:18.599Z,12.41
2022-10-22T20:08:46.780Z,12.72
2022-10-22T20:11:19.085Z,12.52
2022-10-22T20:13:51.173Z,12.45
2022-10-22T20:16:23.496Z,12.37
2022-10-22T20:18:51.190Z,12.31
2022-10-22T20:21:19.807Z,12.26
2022-10-22T20:23:48.012Z,12.31
2022-10-22T20:26:16.815Z,12.50
2022-10-22T20:28:44.408Z,12.44
2022-10-22T20:31:12.964Z,12.16
2022-10-22T20:33:41.236Z,12.04
2022-10-22T20:36:19.820Z,11.95
2022-10-22T20:38:48.328Z,12.00
2022-10-22T20:41:20.345Z,12.19
2022-10-22T20:43:49.187Z,12.02
2022-10-22T20:46:19.451Z,12.00
2022-10-22T20:48:47.069Z,12.05
2022-10-22T20:51:14.873Z,12.10
2022-10-22T20:53:43.037Z,12.31
2022-10-22T20:56:11.236Z,12.44
2022-10-22T20:58:40.272Z,12.20
2022-10-22T21:01:12.073Z,11.95
2022-10-22T21:03:39.763Z,11.97
2022-10-22T21:06:07.835Z,11.89
2022-10-22T21:08:35.399Z,11.77
2022-10-22T21:11:03.021Z,11.86
2022-10-22T21:13:32.487Z,11.76
2022-10-22T21:16:08.047Z,11.64
2022-10-22T21:18:36.010Z,11.71
2022-10-22T21:21:05.046Z,11.90
2022-10-22T21:23:32.717Z,11.78
2022-10-22T21:26:00.335Z,11.85
2022-10-22T21:28:28.112Z,11.94
2022-10-22T21:30:55.969Z,11.83
2022-10-22T21:33:24.882Z,11.79
2022-10-22T21:35:53.132Z,11.72
2022-10-22T21:38:21.199Z,11.63
2022-10-22T21:40:49.000Z,11.66
2022-10-22T21:43:17.474Z,11.77
2022-10-22T21:45:45.541Z,11.72
2022-10-22T21:48:13.724Z,12.04
2022-10-22T21:50:43.462Z,11.94
2022-10-22T21:53:11.957Z,11.90
2022-10-22T21:55:40.218Z,11.84
2022-10-22T21:58:08.532Z,11.73
2022-10-22T22:00:36.621Z,11.73
2022-10-22T22:03:04.690Z,11.60
2022-10-22T22:05:32.205Z,11.52
2022-10-22T22:08:01.184Z,11.38
2022-10-22T22:10:28.938Z,11.45
2022-10-22T22:12:56.645Z,11.52
2022-10-22T22:15:24.281Z,11.48
2022-10-22T22:17:51.826Z,11.63
2022-10-22T22:20:19.836Z,11.54
2022-10-22T22:22:47.642Z,11.43
2022-10-22T22:25:16.814Z,11.35
2022-10-22T22:27:44.664Z,11.33
2022-10-22T22:30:13.145Z,11.43
2022-10-22T22:32:40.747Z,11.44
2022-10-22T22:35:08.972Z,11.27
2022-10-22T22:37:36.505Z,11.38
2022-10-22T22:40:04.170Z,11.34
2022-10-22T22:42:33.167Z,11.36
2022-10-22T22:45:00.742Z,11.43
2022-10-22T22:47:28.304Z,11.64
2022-10-22T22:49:55.934Z,11.56
2022-10-22T22:52:25.580Z,11.50
2022-10-22T22:54:53.203Z,11.38
2022-10-22T22:57:21.218Z,11.35
2022-10-22T22:59:52.066Z,11.18
2022-10-22T23:02:19.885Z,11.30
2022-10-22T23:04:47.488Z,11.30
2022-10-22T23:07:15.156Z,11.35
2022-10-22T23:09:42.701Z,11.30
2022-10-22T23:12:10.350Z,11.20
2022-10-22T23:14:37.976Z,11.03
2022-10-22T23:17:07.040Z,11.01
2022-10-22T23:19:34.756Z,11.31
2022-10-22T23:22:02.511Z,10.96
2022-10-22T23:24:30.415Z,10.91
2022-10-22T23:27:01.191Z,11.24
2022-10-22T23:29:30.190Z,11.12
2022-10-22T23:32:01.139Z,10.90
2022-10-22T23:34:31.345Z,10.92
2022-10-22T23:36:59.983Z,10.99
2022-10-22T23:39:29.106Z,11.04
2022-10-22T23:41:57.000Z,10.87
2022-10-22T23:44:25.270Z,10.80
2022-10-22T23:46:52.931Z,10.73
2022-10-22T23:49:20.568Z,10.55
2022-10-22T23:51:49.498Z,10.43
2022-10-22T23:54:18.936Z,10.43
2022-10-22T23:56:46.889Z,10.58
